This is the latest recevied weather packets stored in our database for station/object KF5JED-13. If no packets are shown the sender has not sent any weather packets the latest 10 day(s).
| Time | Temp. | Humidity | Pressure | Rain* | Wind** | Luminosity | Snow |
|---|---|---|---|---|---|---|---|
| 1777388403 | 17.22° C | 61% | 1014.9 hPa | 0 mm | - | 469 W/m² | - |
| 1777388103 | 17.22° C | 61% | 1014.6 hPa | 0 mm | - | 448 W/m² | - |
| 1777387495 | 17.22° C | 59% | 1014.8 hPa | 0 mm | - | 405 W/m² | - |
| 1777386886 | 16.67° C | 60% | 1014.7 hPa | 0 mm | - | 365 W/m² | - |
| 1777386280 | 16.11° C | 62% | 1014.6 hPa | 0 mm | - | 322 W/m² | - |
| 1777385977 | 16.11° C | 62% | 1014.5 hPa | 0 mm | - | 303 W/m² | - |
| 1777385673 | 16.11° C | 62% | 1014.2 hPa | 0 mm | - | 287 W/m² | - |
| 1777385371 | 15.56° C | 64% | 1014.1 hPa | 0 mm | - | 272 W/m² | - |
| 1777385068 | 15.56° C | 66% | 1014.2 hPa | 0 mm | - | 263 W/m² | - |
| 1777384764 | 15° C | 67% | 1014.1 hPa | 0 mm | - | 250 W/m² | - |
| 1777384460 | 14.44° C | 69% | 1013.9 hPa | 0 mm | - | 237 W/m² | - |
| 1777384155 | 14.44° C | 70% | 1013.8 hPa | 0 mm | - | 220 W/m² | - |
| 1777383548 | 13.33° C | 72% | 1013.9 hPa | 0 mm | - | 190 W/m² | - |
| 1777382941 | 13.33° C | 72% | 1013.6 hPa | 0 mm | - | 148 W/m² | - |
| 1777382332 | 13.89° C | 69% | 1013.3 hPa | 0 mm | - | 110 W/m² | - |
| 1777382029 | 13.89° C | 71% | 1013.5 hPa | 0 mm | - | 99 W/m² | - |
| 1777381419 | 12.78° C | 79% | 1013.1 hPa | 0 mm | - | 79 W/m² | - |
| 1777378988 | 7.22° C | 86% | 1012.8 hPa | 0 mm | - | 22 W/m² | - |
| 1777376858 | 8.33° C | 84% | 1012.3 hPa | 0 mm | - | 0 W/m² | - |
| 1777376252 | 8.89° C | 83% | 1012.6 hPa | 0 mm | - | 0 W/m² | - |
| 1777375946 | 8.89° C | 82% | 1012.3 hPa | 0 mm | - | 0 W/m² | - |
| 1777375641 | 9.44° C | 81% | 1012.3 hPa | 0 mm | - | 0 W/m² | - |
| 1777375336 | 9.44° C | 82% | 1012.2 hPa | 0 mm | - | 0 W/m² | - |
| 1777374728 | 10° C | 82% | 1012.2 hPa | 0 mm | - | 0 W/m² | - |
| 1777372600 | 10.56° C | 77% | 1011.9 hPa | 0 mm | - | 0 W/m² | - |
* Rain latest hour (hover to see other rain measurements)
** Current wind speed in m/s (hover to see current wind gust speed)